Time;durP1;ratioP1;P1;durP2;ratioP2;P2;SDS_P1;SDS_P2;PMS_P1;PMS_P2;Temp;Humidity;BMP_temperature;BMP_pressure;BME280_temperature;BME280_humidity;BME280_pressure;Samples;Min_cycle;Max_cycle;Signal;HPM_P1;HPM_P2
2022/04/04 00:02:14;;;;;;;1.90;1.10;;;7.00;89.10;;;;;;5023569;28;20096;-68
2022/04/04 00:04:40;;;;;;;1.70;1.40;;;7.00;89.10;;;;;;5021816;28;20044;-68
2022/04/04 00:07:06;;;;;;;2.20;1.73;;;6.90;89.10;;;;;;5012119;28;20030;-68
2022/04/04 00:09:32;;;;;;;2.38;1.70;;;6.90;89.10;;;;;;5011616;28;20065;-68
2022/04/04 00:12:01;;;;;;;3.90;1.95;;;6.90;89.10;;;;;;5014853;28;20037;-68
2022/04/04 00:14:27;;;;;;;4.18;1.90;;;6.90;89.10;;;;;;5020052;28;20083;-68
2022/04/04 00:16:53;;;;;;;2.92;1.52;;;6.90;89.20;;;;;;5011953;28;20030;-69
2022/04/04 00:19:19;;;;;;;2.88;1.70;;;6.90;89.20;;;;;;5023908;28;20040;-69
2022/04/04 00:21:45;;;;;;;4.53;1.60;;;6.80;89.20;;;;;;5031311;28;20377;-68
2022/04/04 00:24:10;;;;;;;2.55;1.70;;;6.80;89.30;;;;;;5030650;28;20041;-68
2022/04/04 00:26:36;;;;;;;2.33;1.48;;;6.80;89.30;;;;;;5025402;28;20021;-69
2022/04/04 00:29:02;;;;;;;2.15;1.63;;;6.80;89.50;;;;;;5024016;28;20034;-68
2022/04/04 00:31:27;;;;;;;2.60;1.52;;;6.80;89.50;;;;;;5017525;28;20025;-68
2022/04/04 00:33:54;;;;;;;1.85;1.38;;;6.80;89.50;;;;;;5031421;28;20065;-68
2022/04/04 00:36:20;;;;;;;4.05;1.88;;;6.70;89.50;;;;;;5011464;28;20045;-68
2022/04/04 00:38:46;;;;;;;5.47;2.10;;;6.70;89.60;;;;;;5010728;28;20405;-68
2022/04/04 00:41:15;;;;;;;4.78;1.88;;;6.70;89.60;;;;;;5018431;28;20469;-68
2022/04/04 00:43:41;;;;;;;1.83;1.70;;;6.70;89.80;;;;;;5030682;28;20493;-68
2022/04/04 00:46:07;;;;;;;3.47;2.10;;;6.70;89.80;;;;;;5022443;28;20164;-68
2022/04/04 00:48:34;;;;;;;1.63;1.50;;;6.70;89.90;;;;;;5026078;28;20116;-68
2022/04/04 00:51:01;;;;;;;3.47;1.70;;;6.70;89.90;;;;;;5030104;28;20038;-68
2022/04/04 00:53:27;;;;;;;4.80;2.25;;;6.70;90.00;;;;;;5028038;28;20038;-68
2022/04/04 00:55:54;;;;;;;4.60;2.00;;;6.60;90.00;;;;;;5011358;28;20049;-68
2022/04/04 00:58:21;;;;;;;2.65;2.03;;;6.60;90.10;;;;;;5025818;28;20049;-68
2022/04/04 01:00:48;;;;;;;4.50;2.00;;;6.60;90.10;;;;;;5034620;28;20034;-69
2022/04/04 01:03:15;;;;;;;3.10;2.00;;;6.60;90.10;;;;;;5034552;28;20048;-68
2022/04/04 01:05:43;;;;;;;3.47;2.00;;;6.60;90.20;;;;;;5034101;28;20030;-68
2022/04/04 01:08:12;;;;;;;2.83;1.92;;;6.60;90.20;;;;;;5034274;28;20033;-68
2022/04/04 01:10:43;;;;;;;2.92;1.80;;;6.60;90.20;;;;;;5034725;28;20048;-68
2022/04/04 01:13:10;;;;;;;3.15;1.90;;;6.60;90.30;;;;;;5034039;28;20358;-68
2022/04/04 01:15:36;;;;;;;3.25;1.80;;;6.50;90.30;;;;;;5026947;28;20040;-68
2022/04/04 01:18:05;;;;;;;4.03;2.17;;;6.50;90.30;;;;;;5014768;28;20112;-68
2022/04/04 01:20:31;;;;;;;5.93;2.60;;;6.50;90.40;;;;;;5014663;28;20352;-68
2022/04/04 01:22:58;;;;;;;5.97;2.25;;;6.50;90.40;;;;;;5015013;28;20153;-67
2022/04/04 01:25:30;;;;;;;3.92;2.45;;;6.50;90.50;;;;;;5015410;28;20528;-68
2022/04/04 01:27:56;;;;;;;8.27;3.17;;;6.50;90.60;;;;;;5031336;28;20034;-68
2022/04/04 01:30:24;;;;;;;6.50;2.95;;;6.50;90.60;;;;;;5024347;28;20041;-68
2022/04/04 01:32:50;;;;;;;6.35;3.53;;;6.50;90.60;;;;;;5022248;28;20030;-68
2022/04/04 01:35:18;;;;;;;6.78;3.38;;;6.50;90.60;;;;;;5013714;28;20044;-68
2022/04/04 01:37:43;;;;;;;10.48;4.00;;;6.50;90.70;;;;;;5019770;28;20040;-68
2022/04/04 01:40:10;;;;;;;5.47;3.20;;;6.50;90.70;;;;;;5034059;28;20029;-68
2022/04/04 01:42:37;;;;;;;9.45;4.50;;;6.50;90.80;;;;;;5014878;28;20116;-68
2022/04/04 01:45:08;;;;;;;6.60;3.90;;;6.50;90.90;;;;;;5014412;28;20042;-68
2022/04/04 01:47:34;;;;;;;7.93;3.67;;;6.40;91.00;;;;;;5014251;28;20029;-68
2022/04/04 01:50:00;;;;;;;9.70;4.22;;;6.40;91.10;;;;;;5013884;28;20498;-68
2022/04/04 01:52:26;;;;;;;6.78;3.05;;;6.40;91.10;;;;;;5013913;28;20464;-68
2022/04/04 01:54:52;;;;;;;7.10;4.00;;;6.40;91.20;;;;;;5026078;28;20029;-68
2022/04/04 01:57:17;;;;;;;9.10;4.43;;;6.50;91.20;;;;;;5031682;28;20049;-68
2022/04/04 01:59:43;;;;;;;9.60;4.82;;;6.50;91.30;;;;;;5032111;28;20166;-68
2022/04/04 02:02:09;;;;;;;10.43;4.35;;;6.40;91.30;;;;;;5032227;28;20104;-68
2022/04/04 02:04:35;;;;;;;9.77;5.03;;;6.40;91.40;;;;;;5031619;28;20465;-68
2022/04/04 02:07:01;;;;;;;9.32;5.60;;;6.40;91.50;;;;;;5027784;28;20028;-68
2022/04/04 02:09:27;;;;;;;10.13;5.43;;;6.40;91.60;;;;;;5027861;28;20025;-67
2022/04/04 02:11:53;;;;;;;9.32;5.00;;;6.40;91.70;;;;;;5030705;28;20053;-67
2022/04/04 02:14:19;;;;;;;12.63;5.72;;;6.40;91.70;;;;;;5031688;28;20032;-67
2022/04/04 02:16:45;;;;;;;11.23;6.07;;;6.40;91.80;;;;;;5031078;28;20034;-73
2022/04/04 02:19:11;;;;;;;14.10;6.97;;;6.40;91.80;;;;;;5032140;28;20108;-67
2022/04/04 02:21:37;;;;;;;14.63;6.38;;;6.40;91.90;;;;;;5032014;28;20183;-67
2022/04/04 02:24:04;;;;;;;15.35;7.00;;;6.40;92.00;;;;;;5031113;28;20389;-67
2022/04/04 02:26:29;;;;;;;12.15;7.25;;;6.40;92.10;;;;;;5031911;28;20031;-67
2022/04/04 02:28:55;;;;;;;14.73;6.70;;;6.40;92.10;;;;;;5032219;28;20116;-68
2022/04/04 02:31:21;;;;;;;11.35;6.47;;;6.40;92.10;;;;;;5031161;28;20033;-68
2022/04/04 02:33:47;;;;;;;12.88;7.43;;;6.40;92.20;;;;;;5023470;28;20033;-68
2022/04/04 02:36:13;;;;;;;15.75;7.47;;;6.40;92.20;;;;;;5012554;28;20095;-68
2022/04/04 02:38:38;;;;;;;20.42;7.88;;;6.40;92.30;;;;;;5012456;28;20113;-68
2022/04/04 02:41:05;;;;;;;13.20;7.35;;;6.40;92.30;;;;;;5025718;28;20041;-68
2022/04/04 02:43:31;;;;;;;13.88;8.13;;;6.40;92.30;;;;;;5018939;28;20150;-68
2022/04/04 02:45:56;;;;;;;12.80;7.35;;;6.50;92.40;;;;;;5031191;28;20028;-68
2022/04/04 02:48:22;;;;;;;12.57;7.05;;;6.40;92.40;;;;;;5031729;28;20025;-68
2022/04/04 02:50:48;;;;;;;14.18;6.57;;;6.40;92.40;;;;;;5030817;28;20413;-67
2022/04/04 02:53:15;;;;;;;12.30;6.95;;;6.40;92.40;;;;;;5031550;28;20038;-68
2022/04/04 02:58:26;;;;;;;21.77;7.35;;;6.50;92.50;;;;;;5030465;28;20055;-68
2022/04/04 03:00:51;;;;;;;18.85;7.93;;;6.40;92.50;;;;;;5031076;28;20453;-68
2022/04/04 03:03:17;;;;;;;13.38;6.55;;;6.40;92.60;;;;;;5031032;28;20041;-68
2022/04/04 03:05:43;;;;;;;12.40;7.40;;;6.40;92.60;;;;;;5030685;28;20034;-70
2022/04/04 03:08:09;;;;;;;13.90;7.68;;;6.40;92.60;;;;;;5031223;28;20031;-67
2022/04/04 03:10:36;;;;;;;11.95;6.50;;;6.40;92.60;;;;;;5031165;28;20030;-67
2022/04/04 03:13:04;;;;;;;10.98;6.80;;;6.40;92.70;;;;;;5030581;28;20033;-67
2022/04/04 03:15:34;;;;;;;15.52;8.43;;;6.40;92.80;;;;;;5031147;28;20033;-68
2022/04/04 03:18:00;;;;;;;13.90;7.82;;;6.40;92.80;;;;;;5030936;28;20090;-67
2022/04/04 03:20:26;;;;;;;16.33;7.75;;;6.50;92.80;;;;;;5030062;28;20120;-68
2022/04/04 03:22:54;;;;;;;13.27;7.25;;;6.50;92.80;;;;;;5030955;28;20038;-68
2022/04/04 03:25:20;;;;;;;13.38;7.15;;;6.50;92.90;;;;;;5030657;28;20500;-67
2022/04/04 03:27:47;;;;;;;12.52;6.90;;;6.40;92.90;;;;;;5030245;28;20034;-67
2022/04/04 03:30:18;;;;;;;14.60;8.68;;;6.50;93.00;;;;;;5031064;28;20048;-67
2022/04/04 03:32:45;;;;;;;12.88;7.15;;;6.50;93.00;;;;;;5030713;28;20120;-68
2022/04/04 03:35:14;;;;;;;19.17;7.82;;;6.50;93.10;;;;;;5030404;28;20040;-67
2022/04/04 03:37:41;;;;;;;18.23;7.70;;;6.50;93.10;;;;;;5030532;28;20615;-68
2022/04/04 03:40:09;;;;;;;14.20;7.80;;;6.50;93.20;;;;;;5030613;28;20064;-67
2022/04/04 03:42:37;;;;;;;12.15;7.68;;;6.50;93.30;;;;;;5030146;28;20022;-67
2022/04/04 03:45:04;;;;;;;16.38;7.53;;;6.50;93.30;;;;;;5030285;28;20033;-68
2022/04/04 03:47:31;;;;;;;14.18;7.25;;;6.50;93.40;;;;;;5030180;28;20388;-67
2022/04/04 03:49:59;;;;;;;13.02;8.02;;;6.60;93.50;;;;;;5023638;28;20045;-67
2022/04/04 03:52:28;;;;;;;14.35;6.93;;;6.50;93.50;;;;;;5012053;28;20036;-67
2022/04/04 03:54:54;;;;;;;16.17;8.73;;;6.50;93.60;;;;;;5019412;28;20029;-67
2022/04/04 03:57:22;;;;;;;17.77;8.75;;;6.50;93.60;;;;;;5031000;28;20053;-67
2022/04/04 03:59:48;;;;;;;18.38;8.45;;;6.50;93.70;;;;;;5022605;28;20037;-67
2022/04/04 04:02:14;;;;;;;13.63;7.80;;;6.50;93.80;;;;;;5023909;28;20036;-67
2022/04/04 04:04:39;;;;;;;17.38;7.63;;;6.50;93.90;;;;;;5011445;28;20121;-67
2022/04/04 04:07:06;;;;;;;17.95;9.38;;;6.50;93.90;;;;;;5026212;28;20600;-67
2022/04/04 04:09:31;;;;;;;13.25;7.18;;;6.50;93.90;;;;;;5018960;28;20036;-67
2022/04/04 04:11:57;;;;;;;13.23;7.72;;;6.60;93.90;;;;;;5029511;28;20104;-67
2022/04/04 04:14:24;;;;;;;19.00;9.77;;;6.60;94.00;;;;;;5031340;28;20362;-67
2022/04/04 04:16:50;;;;;;;17.60;8.02;;;6.60;94.10;;;;;;5030289;28;20041;-67
2022/04/04 04:21:59;;;;;;;13.93;8.13;;;6.60;94.20;;;;;;5030726;28;20120;-67
2022/04/04 04:24:26;;;;;;;15.45;7.90;;;6.60;94.30;;;;;;5030668;28;20163;-67
2022/04/04 04:26:52;;;;;;;16.08;7.90;;;6.60;94.20;;;;;;5018201;28;20030;-67
2022/04/04 04:29:18;;;;;;;16.60;8.15;;;6.70;94.30;;;;;;5031021;28;20041;-67
2022/04/04 04:31:44;;;;;;;15.98;7.85;;;6.70;94.40;;;;;;5030448;28;20108;-67
2022/04/04 04:34:10;;;;;;;19.98;11.13;;;6.60;94.40;;;;;;5023077;28;20404;-67
2022/04/04 04:36:39;;;;;;;12.85;8.02;;;6.70;94.50;;;;;;5032931;28;20551;-67
2022/04/04 04:39:06;;;;;;;15.85;7.60;;;6.60;94.50;;;;;;5034606;28;20029;-67
2022/04/04 04:41:32;;;;;;;18.05;9.73;;;6.60;94.60;;;;;;5035138;28;20171;-67
2022/04/04 04:43:57;;;;;;;14.20;7.85;;;6.70;94.60;;;;;;5034061;28;20132;-67
2022/04/04 04:46:23;;;;;;;16.45;7.35;;;6.70;94.60;;;;;;5016146;28;20033;-67
2022/04/04 04:48:49;;;;;;;13.70;8.57;;;6.70;94.60;;;;;;5015556;28;20856;-67
2022/04/04 04:51:14;;;;;;;20.13;9.05;;;6.80;94.70;;;;;;5020379;28;20029;-67
2022/04/04 04:53:40;;;;;;;19.67;9.30;;;6.80;94.70;;;;;;5034752;28;20506;-67
2022/04/04 04:56:06;;;;;;;18.42;9.55;;;6.70;94.80;;;;;;5015819;28;20491;-67
2022/04/04 04:58:31;;;;;;;16.75;9.55;;;6.70;94.90;;;;;;5014294;28;20107;-67
2022/04/04 05:00:57;;;;;;;14.10;8.52;;;6.70;94.90;;;;;;5034186;28;20029;-67
2022/04/04 05:03:26;;;;;;;12.98;8.25;;;6.70;95.00;;;;;;5027986;28;20088;-67
2022/04/04 05:05:51;;;;;;;19.67;9.50;;;6.80;95.00;;;;;;5015763;28;20018;-67
2022/04/04 05:08:17;;;;;;;19.58;9.30;;;6.70;95.30;;;;;;5022112;28;20112;-67
2022/04/04 05:10:43;;;;;;;15.50;8.35;;;6.60;95.50;;;;;;5027423;28;20105;-68
2022/04/04 05:13:09;;;;;;;15.38;8.32;;;6.60;95.70;;;;;;5028298;28;20033;-68
2022/04/04 05:15:34;;;;;;;20.52;8.30;;;6.60;95.80;;;;;;5031307;28;20462;-68
2022/04/04 05:18:00;;;;;;;13.30;7.93;;;6.60;95.90;;;;;;5022889;28;20029;-69
2022/04/04 05:20:26;;;;;;;16.48;7.85;;;6.50;96.00;;;;;;5032374;28;20112;-67
2022/04/04 05:22:52;;;;;;;15.63;7.93;;;6.60;96.10;;;;;;5032923;28;20025;-66
2022/04/04 05:25:18;;;;;;;12.63;6.53;;;6.60;96.00;;;;;;5032150;28;20064;-66
2022/04/04 05:27:43;;;;;;;12.43;7.35;;;6.60;96.00;;;;;;5031405;28;20100;-66
2022/04/04 05:30:10;;;;;;;16.65;7.45;;;6.60;96.10;;;;;;5031993;28;20044;-66
2022/04/04 05:32:36;;;;;;;14.40;6.82;;;6.60;96.10;;;;;;5032168;28;20032;-66
2022/04/04 05:35:08;;;;;;;15.63;6.10;;;6.60;96.20;;;;;;5032399;28;20033;-67
2022/04/04 05:37:34;;;;;;;14.82;7.03;;;6.60;96.20;;;;;;5030991;28;20033;-67
2022/04/04 05:40:00;;;;;;;14.50;6.63;;;6.50;96.30;;;;;;5032893;28;20041;-67
2022/04/04 05:42:28;;;;;;;12.55;6.82;;;6.50;96.40;;;;;;5032644;28;20030;-68
2022/04/04 05:44:54;;;;;;;11.45;7.60;;;6.50;96.50;;;;;;5031600;28;20124;-68
2022/04/04 05:47:20;;;;;;;13.75;7.40;;;6.50;96.70;;;;;;5031369;28;20437;-68
2022/04/04 05:49:48;;;;;;;13.18;7.53;;;6.40;96.80;;;;;;5030558;28;20048;-68
2022/04/04 05:52:15;;;;;;;12.13;6.47;;;6.30;96.90;;;;;;5031523;28;20030;-68
2022/04/04 05:54:54;;;;;;;11.18;6.22;;;6.30;97.10;;;;;;5031167;28;20044;-68
2022/04/04 05:57:27;;;;;;;12.27;7.30;;;6.30;97.20;;;;;;5029663;28;20053;-68
2022/04/04 05:59:54;;;;;;;13.23;6.93;;;6.30;97.20;;;;;;5029667;28;20032;-67
2022/04/04 06:02:20;;;;;;;13.48;6.82;;;6.30;97.30;;;;;;5028654;28;20033;-67
2022/04/04 06:04:46;;;;;;;11.05;5.60;;;6.30;97.30;;;;;;5031074;28;20038;-67
2022/04/04 06:07:12;;;;;;;11.18;5.93;;;6.30;97.30;;;;;;5030680;28;20400;-70
2022/04/04 06:09:38;;;;;;;12.45;6.97;;;6.30;97.30;;;;;;5030588;28;20053;-70
2022/04/04 06:12:04;;;;;;;9.93;5.15;;;6.40;97.40;;;;;;5031716;28;20103;-71
2022/04/04 06:14:29;;;;;;;12.48;4.85;;;6.30;97.40;;;;;;5032131;28;20036;-71
2022/04/04 06:16:55;;;;;;;7.05;3.80;;;6.20;97.40;;;;;;5029367;28;20036;-73
2022/04/04 06:19:21;;;;;;;11.25;4.85;;;6.10;97.80;;;;;;5019494;28;20072;-70
2022/04/04 06:21:48;;;;;;;5.63;3.50;;;6.00;97.70;;;;;;5032871;28;20391;-67
2022/04/04 06:24:13;;;;;;;10.43;4.13;;;6.00;97.80;;;;;;5020598;28;20037;-67
2022/04/04 06:26:39;;;;;;;5.90;3.03;;;6.00;97.90;;;;;;5018464;28;20435;-67
2022/04/04 06:29:09;;;;;;;9.85;2.95;;;6.00;97.90;;;;;;5031733;28;20029;-67
2022/04/04 06:31:36;;;;;;;7.22;2.85;;;6.00;97.80;;;;;;5031320;28;20021;-67
2022/04/04 06:34:04;;;;;;;5.53;2.72;;;6.00;97.80;;;;;;5032505;28;20029;-67
2022/04/04 06:36:30;;;;;;;6.13;3.40;;;6.10;97.80;;;;;;5023221;28;20370;-67
2022/04/04 06:38:56;;;;;;;9.27;2.90;;;6.10;97.70;;;;;;5030375;28;20092;-67
2022/04/04 06:41:22;;;;;;;4.88;3.10;;;6.00;97.70;;;;;;5021226;28;20041;-67
2022/04/04 06:43:48;;;;;;;5.28;3.00;;;6.00;97.80;;;;;;5031837;28;20057;-68
2022/04/04 06:46:16;;;;;;;5.90;2.60;;;6.00;97.80;;;;;;5032775;28;20037;-71
2022/04/04 06:48:41;;;;;;;8.00;2.95;;;6.00;97.80;;;;;;5031136;28;20427;-68
2022/04/04 06:51:07;;;;;;;5.35;2.92;;;6.10;97.70;;;;;;5029803;28;20029;-68
2022/04/04 06:53:32;;;;;;;4.05;2.72;;;6.10;97.70;;;;;;5031653;28;20022;-68
2022/04/04 06:55:58;;;;;;;6.60;3.10;;;6.10;97.70;;;;;;5030134;28;20060;-68
2022/04/04 06:58:26;;;;;;;7.85;2.75;;;6.20;97.70;;;;;;5029813;28;20042;-68
2022/04/04 07:00:52;;;;;;;5.72;3.10;;;6.10;97.70;;;;;;5030914;28;20032;-68
2022/04/04 07:03:17;;;;;;;6.95;3.20;;;6.20;97.80;;;;;;5031477;28;20033;-68
2022/04/04 07:05:43;;;;;;;8.23;2.95;;;6.20;97.80;;;;;;5030541;28;20033;-69
2022/04/04 07:08:10;;;;;;;5.55;3.20;;;6.20;97.70;;;;;;5031538;28;20069;-68
2022/04/04 07:10:39;;;;;;;7.75;3.33;;;6.20;97.80;;;;;;5031226;28;20030;-68
2022/04/04 07:13:05;;;;;;;5.53;2.80;;;6.20;97.80;;;;;;5030582;28;20029;-68
2022/04/04 07:15:31;;;;;;;8.38;3.17;;;6.20;97.80;;;;;;5030913;28;20022;-68
2022/04/04 07:17:57;;;;;;;6.97;3.38;;;6.20;97.80;;;;;;5031142;28;20029;-68
2022/04/04 07:20:22;;;;;;;6.35;3.20;;;6.30;97.90;;;;;;5030614;28;20095;-68
2022/04/04 07:22:48;;;;;;;7.95;4.20;;;6.30;97.90;;;;;;5028197;28;20042;-68
2022/04/04 07:25:14;;;;;;;6.63;3.88;;;6.20;97.90;;;;;;5030959;28;20029;-68
2022/04/04 07:27:42;;;;;;;8.88;3.95;;;6.30;97.90;;;;;;5030474;28;20026;-68
2022/04/04 07:30:09;;;;;;;9.13;4.40;;;6.30;98.10;;;;;;5030986;28;20133;-68
2022/04/04 07:32:36;;;;;;;6.15;3.78;;;6.30;98.10;;;;;;5030894;28;20078;-68
2022/04/04 07:35:03;;;;;;;13.23;4.95;;;6.30;98.10;;;;;;5030359;28;20038;-68
2022/04/04 07:37:29;;;;;;;13.23;5.00;;;6.30;98.20;;;;;;5028093;28;20136;-68
2022/04/04 07:39:55;;;;;;;12.77;5.00;;;6.30;98.30;;;;;;5030571;28;20112;-68
2022/04/04 07:42:20;;;;;;;7.88;4.78;;;6.30;98.30;;;;;;5030403;28;20111;-68
2022/04/04 07:44:46;;;;;;;13.13;5.03;;;6.30;98.40;;;;;;5030126;28;20451;-67
2022/04/04 07:47:11;;;;;;;8.82;4.75;;;6.30;98.50;;;;;;5030272;28;20037;-72
2022/04/04 07:49:37;;;;;;;8.55;4.53;;;6.30;98.60;;;;;;5031552;28;20038;-70
2022/04/04 07:52:03;;;;;;;8.82;5.28;;;6.30;98.70;;;;;;5030247;28;20028;-68
2022/04/04 07:54:29;;;;;;;7.07;4.78;;;6.40;98.70;;;;;;5029798;28;20416;-67
2022/04/04 07:56:56;;;;;;;8.48;5.32;;;6.40;98.90;;;;;;5029673;28;20045;-66
2022/04/04 07:59:25;;;;;;;11.63;4.60;;;6.40;98.80;;;;;;5030135;28;20055;-69
2022/04/04 08:01:51;;;;;;;10.57;5.82;;;6.40;98.90;;;;;;5028591;28;20033;-69
2022/04/04 08:04:17;;;;;;;8.00;5.40;;;6.40;99.00;;;;;;5029137;28;20040;-74
2022/04/04 08:06:43;;;;;;;11.15;5.15;;;6.40;99.00;;;;;;5029825;28;20028;-67
2022/04/04 08:09:09;;;;;;;8.68;5.15;;;6.40;99.10;;;;;;5029522;28;20029;-67
2022/04/04 08:11:35;;;;;;;9.10;5.13;;;6.40;99.20;;;;;;5030067;28;20369;-67
2022/04/04 08:14:01;;;;;;;10.02;4.85;;;6.50;99.20;;;;;;5029476;28;20087;-67
2022/04/04 08:16:26;;;;;;;11.60;4.53;;;6.40;99.40;;;;;;5027373;28;20076;-68
2022/04/04 08:18:53;;;;;;;7.53;4.68;;;6.50;99.50;;;;;;5029566;28;20029;-67
2022/04/04 08:21:19;;;;;;;10.35;5.18;;;6.50;99.60;;;;;;5030023;28;20044;-68
2022/04/04 08:23:45;;;;;;;13.88;5.28;;;6.50;99.60;;;;;;5029469;28;20550;-68
2022/04/04 08:26:11;;;;;;;7.65;4.00;;;6.50;99.80;;;;;;5029960;28;20029;-70
2022/04/04 08:28:37;;;;;;;8.57;4.47;;;6.50;99.90;;;;;;5030527;28;20029;-68
2022/04/04 08:31:03;;;;;;;8.57;4.65;;;6.50;99.90;;;;;;5029379;28;20128;-70
2022/04/04 08:33:29;;;;;;;5.45;3.60;;;6.50;99.90;;;;;;5019067;28;20034;-68
2022/04/04 08:35:57;;;;;;;5.82;3.80;;;6.50;99.90;;;;;;5024163;28;20038;-68
2022/04/04 08:38:22;;;;;;;7.32;4.47;;;6.60;99.90;;;;;;5021871;28;20045;-68
2022/04/04 08:40:52;;;;;;;7.60;4.60;;;6.60;99.90;;;;;;5025455;28;20046;-67
2022/04/04 08:43:18;;;;;;;5.85;4.05;;;6.60;99.90;;;;;;5009725;28;20030;-68
2022/04/04 08:45:47;;;;;;;7.18;3.35;;;6.60;99.90;;;;;;5010428;28;20034;-68
2022/04/04 08:48:17;;;;;;;8.25;3.22;;;6.60;99.90;;;;;;5022810;28;20380;-68
2022/04/04 08:50:43;;;;;;;7.72;3.60;;;6.60;99.90;;;;;;5029803;28;20030;-68
2022/04/04 08:53:09;;;;;;;5.65;3.38;;;6.60;99.90;;;;;;5016558;28;20030;-68
2022/04/04 08:55:35;;;;;;;6.20;3.30;;;6.60;99.90;;;;;;5011300;28;20363;-67
2022/04/04 08:58:02;;;;;;;6.38;2.97;;;6.60;99.90;;;;;;5023520;28;20052;-68
2022/04/04 09:00:29;;;;;;;6.32;2.80;;;6.60;99.90;;;;;;5011498;28;20033;-67
2022/04/04 09:03:03;;;;;;;5.95;3.15;;;6.70;99.90;;;;;;5010734;28;20034;-67
2022/04/04 09:05:31;;;;;;;4.10;2.47;;;6.70;99.90;;;;;;5010645;28;20428;-68
2022/04/04 09:08:06;;;;;;;4.55;2.97;;;6.80;99.90;;;;;;5016514;28;20078;-68
2022/04/04 09:10:40;;;;;;;5.25;3.20;;;6.70;99.90;;;;;;5030796;28;20048;-67
2022/04/04 09:13:16;;;;;;;5.57;2.90;;;6.70;99.90;;;;;;5010829;28;20030;-67
2022/04/04 09:15:49;;;;;;;6.75;2.88;;;6.80;99.90;;;;;;5024075;28;20030;-68
2022/04/04 09:18:15;;;;;;;4.30;2.75;;;6.80;99.90;;;;;;5011120;28;20037;-67
2022/04/04 09:20:51;;;;;;;5.30;3.30;;;6.90;99.90;;;;;;5029596;28;20461;-68
2022/04/04 09:23:17;;;;;;;5.10;2.92;;;6.90;99.90;;;;;;5034331;28;20037;-68
2022/04/04 09:25:43;;;;;;;6.65;3.08;;;6.90;99.90;;;;;;5033938;28;20044;-67
2022/04/04 09:28:19;;;;;;;5.20;3.17;;;6.90;99.90;;;;;;5034348;28;20064;-68
2022/04/04 09:31:06;;;;;;;4.32;2.60;;;7.00;99.90;;;;;;5033005;28;20556;-68
2022/04/04 09:33:40;;;;;;;5.15;3.00;;;7.00;99.90;;;;;;5016260;28;20068;-68
2022/04/04 09:36:07;;;;;;;4.80;2.90;;;7.00;99.90;;;;;;5014529;28;20037;-68
2022/04/04 09:38:36;;;;;;;5.68;2.80;;;6.90;99.90;;;;;;5027010;28;20132;-68
2022/04/04 09:41:18;;;;;;;5.20;2.70;;;7.00;99.90;;;;;;5013805;28;20066;-68
2022/04/04 09:43:55;;;;;;;3.70;2.50;;;7.00;99.90;;;;;;5033930;28;20049;-68
2022/04/04 09:46:21;;;;;;;4.43;2.13;;;7.10;99.90;;;;;;5033534;28;20071;-68
2022/04/04 09:49:09;;;;;;;4.10;2.50;;;7.10;99.90;;;;;;5033365;28;20045;-68
2022/04/04 09:51:50;;;;;;;3.90;2.42;;;7.10;99.90;;;;;;5021775;28;20109;-68
2022/04/04 09:54:20;;;;;;;4.25;2.40;;;7.10;99.90;;;;;;5033365;28;20547;-67
2022/04/04 09:56:46;;;;;;;4.28;2.25;;;7.10;99.90;;;;;;5023047;28;20065;-67
2022/04/04 09:59:15;;;;;;;9.93;2.80;;;7.20;99.90;;;;;;5013810;28;20025;-67
2022/04/04 10:01:46;;;;;;;4.95;2.50;;;7.20;99.90;;;;;;5024880;28;20481;-67
2022/04/04 10:04:12;;;;;;;3.28;1.95;;;7.20;99.90;;;;;;5027175;28;20042;-67
2022/04/04 10:06:43;;;;;;;3.08;1.90;;;7.20;99.90;;;;;;5026471;28;20032;-68
2022/04/04 10:09:09;;;;;;;7.30;2.45;;;7.20;99.90;;;;;;5024026;28;20140;-65
2022/04/04 10:11:38;;;;;;;5.00;2.35;;;7.30;99.90;;;;;;5014498;28;20030;-67
2022/04/04 10:14:04;;;;;;;3.83;2.00;;;7.30;99.90;;;;;;5028378;28;20068;-68
2022/04/04 10:16:31;;;;;;;3.95;2.17;;;7.30;99.90;;;;;;5030537;28;20052;-68
2022/04/04 10:18:58;;;;;;;3.22;2.00;;;7.40;99.90;;;;;;5033477;28;20052;-67
2022/04/04 10:21:28;;;;;;;4.28;2.50;;;7.40;99.90;;;;;;5013548;28;20037;-67
2022/04/04 10:23:58;;;;;;;3.78;2.20;;;7.40;99.90;;;;;;5025980;28;20045;-67
2022/04/04 10:26:35;;;;;;;3.95;1.80;;;7.50;99.90;;;;;;5025966;28;20021;-67
2022/04/04 10:29:14;;;;;;;2.58;1.75;;;7.50;99.90;;;;;;5012482;28;20050;-67
2022/04/04 10:31:55;;;;;;;2.42;1.80;;;7.50;99.90;;;;;;5023712;28;20091;-68
2022/04/04 10:34:25;;;;;;;2.28;1.80;;;7.60;99.90;;;;;;5026276;28;20033;-67
2022/04/04 10:37:08;;;;;;;3.10;1.77;;;7.60;99.90;;;;;;5025798;28;20025;-68
2022/04/04 10:39:33;;;;;;;4.90;2.05;;;7.60;99.90;;;;;;5023076;28;20029;-66
2022/04/04 10:41:59;;;;;;;4.10;1.98;;;7.60;99.90;;;;;;5032449;28;20608;-66
2022/04/04 10:44:45;;;;;;;3.63;2.03;;;7.70;99.90;;;;;;5032382;28;20041;-70
2022/04/04 10:47:20;;;;;;;2.38;2.05;;;7.70;99.90;;;;;;5032694;28;20083;-71
2022/04/04 10:49:47;;;;;;;2.03;1.55;;;7.70;99.90;;;;;;5031745;28;20045;-68
2022/04/04 10:52:13;;;;;;;2.15;1.33;;;7.70;99.90;;;;;;5031075;28;20095;-68
2022/04/04 10:54:38;;;;;;;3.50;2.05;;;7.70;99.90;;;;;;5031336;28;20029;-69
2022/04/04 10:57:16;;;;;;;2.97;1.80;;;7.80;99.90;;;;;;5030679;28;20041;-69
2022/04/04 10:59:46;;;;;;;4.00;1.73;;;7.70;99.90;;;;;;5031252;28;20025;-69
2022/04/04 11:02:15;;;;;;;2.63;1.65;;;7.80;99.90;;;;;;5031403;28;20091;-71
2022/04/04 11:08:22;;;;;;;;;;;;;;;;;;;;;
2022/04/04 11:10:53;;;;;;;2.33;1.60;;;7.80;99.90;;;;;;5014203;28;20053;-68
2022/04/04 11:13:21;;;;;;;2.22;1.60;;;7.90;99.90;;;;;;5023763;28;20497;-69
2022/04/04 11:15:55;;;;;;;4.30;1.50;;;7.90;99.90;;;;;;5029886;28;20384;-68
2022/04/04 11:18:24;;;;;;;2.17;1.30;;;7.90;99.90;;;;;;5028273;28;20890;-71
2022/04/04 11:20:59;;;;;;;2.33;1.30;;;8.00;99.90;;;;;;5030602;28;20033;-66
2022/04/04 11:23:34;;;;;;;1.45;1.30;;;8.00;99.90;;;;;;5027884;28;20041;-68
2022/04/04 11:26:03;;;;;;;1.58;1.10;;;8.00;99.90;;;;;;5029279;28;20542;-68
2022/04/04 11:28:38;;;;;;;1.30;1.02;;;8.10;99.90;;;;;;5027389;28;20091;-68
2022/04/04 11:31:33;;;;;;;1.48;1.10;;;8.00;99.90;;;;;;5029166;28;20057;-68
2022/04/04 11:33:59;;;;;;;1.40;1.13;;;8.10;99.90;;;;;;5009461;28;20052;-68
2022/04/04 11:37:10;;;;;;;1.00;0.90;;;8.20;99.90;;;;;;5029526;28;20037;-68
2022/04/04 11:39:36;;;;;;;1.77;0.93;;;8.20;99.90;;;;;;5019205;28;20470;-69
2022/04/04 11:42:07;;;;;;;1.13;1.02;;;8.20;99.90;;;;;;5026722;28;20033;-69
2022/04/04 11:47:18;;;;;;;3.90;1.08;;;8.20;99.90;;;;;;5028487;28;20026;-68
2022/04/04 11:50:01;;;;;;;2.10;1.30;;;8.30;99.90;;;;;;5028438;28;20037;-68
2022/04/04 11:52:53;;;;;;;2.25;1.50;;;8.30;99.90;;;;;;5027579;28;20026;-68
2022/04/04 11:55:28;;;;;;;1.63;1.00;;;8.30;99.90;;;;;;5026700;28;20396;-68
2022/04/04 11:57:58;;;;;;;0.80;0.80;;;8.40;99.90;;;;;;5020465;28;20057;-69
2022/04/04 12:00:35;;;;;;;0.95;0.80;;;8.50;99.90;;;;;;5027500;28;20116;-68
2022/04/04 12:03:10;;;;;;;3.55;0.73;;;8.40;99.90;;;;;;5027081;28;20043;-67
2022/04/04 12:05:49;;;;;;;0.70;0.70;;;8.50;99.90;;;;;;5026139;28;20037;-67
2022/04/04 12:08:42;;;;;;;1.80;1.00;;;8.60;99.90;;;;;;5026061;28;20504;-67
2022/04/04 12:11:10;;;;;;;0.70;0.70;;;8.60;99.90;;;;;;5028086;28;20030;-67
2022/04/04 12:13:57;;;;;;;0.60;0.60;;;8.60;99.90;;;;;;5026346;28;20029;-68
2022/04/04 12:16:29;;;;;;;1.30;0.80;;;8.60;99.90;;;;;;5027756;28;20029;-67
2022/04/04 12:19:04;;;;;;;1.55;1.05;;;8.60;99.90;;;;;;5028912;28;20087;-67
2022/04/04 12:21:32;;;;;;;0.80;0.80;;;8.70;99.90;;;;;;5026127;28;20061;-67
2022/04/04 12:26:43;;;;;;;1.00;0.90;;;8.70;99.90;;;;;;5028923;28;20028;-67
2022/04/04 12:29:13;;;;;;;0.73;0.73;;;8.70;99.90;;;;;;5028428;28;20404;-67
2022/04/04 12:31:54;;;;;;;0.75;0.75;;;8.80;99.90;;;;;;5028393;28;20041;-69
2022/04/04 12:34:22;;;;;;;1.92;1.00;;;8.80;99.90;;;;;;5027703;28;20065;-67
2022/04/04 12:36:58;;;;;;;0.63;0.63;;;8.90;99.90;;;;;;5028501;28;20044;-68
2022/04/04 12:39:24;;;;;;;0.52;0.52;;;8.90;99.90;;;;;;5028753;28;20147;-68
2022/04/04 12:41:54;;;;;;;0.85;0.85;;;9.00;99.90;;;;;;5026402;28;20439;-66
2022/04/04 12:44:25;;;;;;;1.42;0.80;;;9.00;99.90;;;;;;5027737;28;20125;-67
2022/04/04 12:47:03;;;;;;;1.95;1.02;;;9.00;99.90;;;;;;5026435;28;20033;-66
2022/04/04 12:49:30;;;;;;;1.20;1.05;;;9.00;99.90;;;;;;5027378;28;20049;-65
2022/04/04 12:52:14;;;;;;;1.17;1.08;;;9.10;99.90;;;;;;5027640;28;20591;-68
2022/04/04 12:54:40;;;;;;;1.58;1.02;;;9.10;99.90;;;;;;5029528;28;20064;-67
2022/04/04 12:57:11;;;;;;;2.05;1.17;;;9.20;99.90;;;;;;5031113;28;20049;-67
2022/04/04 12:59:53;;;;;;;2.60;1.10;;;9.20;99.90;;;;;;5031715;28;20111;-67
2022/04/04 13:02:19;;;;;;;2.10;1.20;;;9.20;99.90;;;;;;5030671;28;20056;-67
2022/04/04 13:04:46;;;;;;;2.05;1.45;;;9.20;99.90;;;;;;5030886;28;20060;-67
2022/04/04 13:07:19;;;;;;;1.17;1.08;;;9.30;99.90;;;;;;5031748;28;20485;-67
2022/04/04 13:09:54;;;;;;;2.63;1.30;;;9.30;99.90;;;;;;5031407;28;20030;-67
2022/04/04 13:12:30;;;;;;;4.15;1.40;;;9.40;99.90;;;;;;5030802;28;20124;-67
2022/04/04 13:14:57;;;;;;;1.50;1.38;;;9.40;99.90;;;;;;5030836;28;20084;-66
2022/04/04 13:17:38;;;;;;;2.65;1.55;;;9.40;99.90;;;;;;5031709;28;20108;-66